Date,TemperatureHighF,TemperatureAvgF,TemperatureLowF,DewpointHighF,DewpointAvgF,DewpointLowF,HumidityHigh,HumidityAvg,HumidityLow,PressureMaxIn,PressureMinIn,WindSpeedMaxMPH,WindSpeedAvgMPH,GustSpeedMaxMPH,PrecipitationSumIn
2013-1-1,36.2,33.7,30.8,34.7,31.2,26.4,96,91,71,31.40,22.74,13,2,13,0.09
2013-1-2,36.1,29.3,23.9,26.9,22.5,19.0,91,76,53,31.40,22.74,12,2,12,0.05
2013-1-3,41.1,29.3,17.4,26.8,22.2,15.2,93,76,55,31.40,22.74,18,3,18,0.03
2013-1-4,33.6,31.0,28.0,25.5,23.9,21.8,82,75,69,31.40,22.74,24,8,24,0.00
2013-1-5,43.2,32.8,21.6,29.6,25.7,18.8,92,76,56,31.40,22.74,12,2,12,0.00
2013-1-6,41.2,37.6,34.0,33.7,30.4,27.3,87,75,67,31.40,22.74,17,4,17,0.01
2013-1-7,36.4,31.2,22.6,31.0,26.5,20.8,93,83,69,31.40,22.74,17,3,17,0.00
2013-1-8,55.2,32.9,18.8,35.8,26.2,16.6,93,79,46,31.40,22.74,17,1,17,0.00
2013-1-9,48.9,36.5,26.0,46.4,34.1,24.0,100,91,77,31.40,22.74,14,2,14,0.04
2013-1-10,46.7,37.0,29.9,41.2,34.3,29.1,97,90,78,31.40,22.74,5,0,5,0.01
2013-1-11,63.1,48.4,37.4,56.5,46.2,35.2,97,92,77,31.40,22.74,23,2,23,0.10
2013-1-12,70.2,55.8,43.6,61.4,52.6,42.8,98,90,71,31.40,22.74,20,2,20,0.13
2013-1-13,66.8,57.7,44.1,58.5,53.1,43.3,98,85,71,31.40,22.74,16,2,16,0.23
2013-1-14,59.0,44.4,34.4,57.9,40.9,32.3,97,88,74,31.40,22.74,16,2,16,0.09
2013-1-15,36.2,34.3,32.3,34.6,30.4,27.4,95,86,79,31.40,22.74,9,1,9,0.35
2013-1-16,37.0,36.0,33.4,35.9,34.7,32.1,97,95,91,31.40,22.74,12,3,12,0.29
2013-1-17,37.8,35.2,30.8,33.8,31.1,28.2,90,85,78,31.40,22.74,12,1,12,0.00
2013-1-18,39.2,30.2,21.6,28.6,20.3,14.4,90,68,45,31.40,22.74,23,5,23,0.00
2013-1-19,58.6,43.5,24.2,30.2,24.5,18.5,86,50,30,31.40,22.74,24,8,24,0.00
2013-1-20,47.7,41.7,27.2,33.9,23.4,15.3,71,49,31,31.40,22.74,35,12,35,0.00
2013-1-21,37.4,27.5,16.3,22.3,16.8,5.2,82,64,48,31.40,22.74,29,8,29,0.00
2013-1-22,21.3,14.2,8.4,6.2,2.5,-0.3,74,60,43,31.40,22.74,28,8,28,0.00
2013-1-23,21.7,14.9,6.1,15.5,6.4,2.0,92,70,49,31.40,22.74,20,4,20,0.00
2013-1-24,28.4,19.0,11.8,16.1,11.1,6.0,88,72,47,31.40,22.74,20,2,20,0.03
2013-1-25,23.4,18.6,11.6,20.8,13.5,7.1,90,81,62,31.40,22.74,12,1,12,0.00
2013-1-26,30.6,26.9,22.8,26.3,23.2,20.0,91,86,76,31.40,22.74,14,3,14,0.00
2013-1-27,38.6,29.9,19.7,27.6,21.2,14.8,84,70,54,31.40,22.74,10,0,10,0.10
2013-1-28,54.4,44.3,32.6,52.5,42.0,25.1,100,92,71,31.40,22.74,22,4,22,0.47
2013-1-29,70.8,58.2,50.6,58.8,53.3,48.3,97,85,61,31.40,22.74,20,4,20,0.06
2013-1-30,73.8,59.4,48.4,59.3,54.3,45.6,96,84,59,31.40,22.74,46,8,46,1.10
2013-1-31,48.5,31.0,25.3,45.7,25.3,16.4,91,80,57,31.40,22.74,53,14,53,0.04
2013-2-1,26.2,16.8,7.0,23.8,11.7,3.6,92,80,69,31.40,22.74,36,8,36,0.00
2013-2-2,27.9,17.6,4.9,26.1,14.1,2.0,99,86,68,31.40,22.74,15,3,15,0.00
2013-2-3,30.7,26.8,22.3,27.0,22.9,15.8,92,85,74,31.40,22.74,25,7,25,0.04
2013-2-4,33.0,26.9,21.5,32.0,21.9,16.1,96,82,64,31.40,22.74,14,4,14,0.01
2013-2-5,38.8,34.9,32.9,36.6,33.1,31.3,100,93,83,31.40,22.74,24,2,24,0.38
2013-2-6,36.1,32.8,25.4,33.0,29.7,23.9,96,88,81,31.40,22.74,13,2,13,0.07
2013-2-7,50.1,35.0,24.3,37.0,30.3,22.8,95,84,60,31.40,22.74,4,0,4,0.02
2013-2-8,40.6,33.3,28.8,39.5,30.4,23.1,96,89,78,31.40,22.74,28,6,28,0.12
2013-2-9,41.8,30.3,22.8,25.3,22.0,19.7,92,72,48,31.40,22.74,13,2,13,0.01
2013-2-10,58.4,37.3,18.8,38.9,26.6,16.6,93,69,39,31.40,22.74,20,1,20,0.06
2013-2-11,67.7,51.9,40.3,52.4,38.1,28.2,95,64,30,31.40,22.74,43,12,43,0.02
2013-2-12,55.1,43.5,30.1,32.0,28.7,25.3,83,57,38,31.40,22.74,27,8,27,0.00
2013-2-13,46.7,34.6,27.3,34.0,29.3,23.9,93,82,54,31.40,22.74,17,2,17,0.08
2013-2-14,48.3,38.6,31.5,34.1,30.7,26.3,86,74,56,31.40,22.74,17,5,17,0.01
2013-2-15,41.7,36.9,31.5,35.0,32.5,28.6,94,84,65,31.40,22.74,10,2,10,0.08
2013-2-16,33.5,28.4,23.4,29.3,22.7,19.3,93,80,60,31.40,22.74,12,2,12,0.03
2013-2-17,27.9,21.0,15.3,20.8,13.7,8.2,88,73,60,31.40,22.74,27,7,27,0.01
2013-2-18,52.6,30.5,9.3,35.0,20.5,6.5,89,69,42,31.40,22.74,13,2,13,0.01
2013-2-19,47.4,39.6,28.7,40.5,31.9,20.5,92,74,58,31.40,22.74,37,11,37,0.09
2013-2-20,28.7,24.9,21.3,21.8,17.7,12.9,86,74,65,31.40,22.74,30,8,30,0.00
2013-2-21,35.9,25.6,21.2,21.7,17.3,13.2,84,71,55,31.40,22.74,12,3,12,0.00
2013-2-22,51.9,38.2,25.6,45.1,33.2,18.4,94,82,71,31.40,22.74,5,0,5,0.03
2013-2-23,59.2,44.2,33.3,45.6,37.9,30.9,95,80,52,31.40,22.74,20,3,20,0.00
2013-2-24,38.9,32.4,22.9,31.3,26.4,19.5,92,79,68,31.40,22.74,21,4,21,0.00
2013-2-25,46.4,33.0,20.1,28.4,23.8,17.9,92,71,48,31.40,22.74,12,1,12,0.00
2013-2-26,49.4,40.1,28.9,41.8,33.3,23.4,91,77,61,31.40,22.74,26,4,26,0.63
2013-2-27,44.7,41.2,34.4,41.3,37.2,32.0,95,86,72,31.40,22.74,21,8,21,0.17
2013-2-28,35.3,34.4,33.6,33.3,31.3,29.6,93,88,83,31.40,22.74,23,7,23,0.04
2013-3-1,36.1,32.8,29.4,32.3,28.6,25.7,93,84,73,31.40,22.74,14,1,14,0.05
2013-3-2,34.4,29.5,27.1,26.8,24.7,22.5,92,82,67,31.40,22.74,15,2,15,0.02
2013-3-3,33.7,27.5,25.3,25.9,22.9,19.7,89,83,68,31.40,22.74,21,5,21,0.02
2013-3-4,44.2,31.6,21.4,26.5,20.6,15.3,87,65,43,31.40,22.74,15,4,15,0.00
2013-3-5,51.4,39.0,27.3,39.1,29.6,22.4,92,70,51,31.40,22.74,23,2,23,0.36
2013-3-6,38.6,35.1,32.0,35.5,32.9,30.7,96,92,86,31.40,22.74,12,1,12,0.45
2013-3-7,44.1,37.7,34.4,33.9,31.9,29.1,90,80,62,31.40,22.74,18,4,18,0.01
2013-3-8,40.2,35.7,29.2,30.2,27.9,24.3,89,73,63,31.40,22.74,12,1,12,0.00
2013-3-9,62.5,41.1,23.7,37.8,31.1,22.0,94,71,38,31.40,22.74,7,0,7,0.00
2013-3-10,75.6,53.7,34.8,42.5,36.4,31.2,92,58,28,31.40,22.74,13,2,13,0.00
2013-3-11,63.4,55.2,45.0,51.4,41.9,36.3,92,62,40,31.40,22.74,25,5,25,0.11
2013-3-12,53.7,41.4,37.5,51.5,36.3,30.3,93,82,72,31.40,22.74,23,7,23,0.10
2013-3-13,39.2,33.9,28.8,34.5,28.2,22.2,94,80,57,31.40,22.74,30,9,30,0.03
2013-3-14,45.3,34.2,26.3,24.9,21.4,18.1,81,61,40,31.40,22.74,23,8,23,0.00
2013-3-15,55.8,40.8,23.8,38.0,29.6,20.3,87,66,47,31.40,22.74,18,4,18,0.00
2013-3-16,63.7,50.6,42.7,53.3,45.3,37.5,96,83,65,31.40,22.74,26,5,26,0.17
2013-3-17,44.2,37.8,33.3,39.7,30.4,26.4,87,75,64,31.40,22.74,12,2,12,0.00
2013-3-18,51.6,42.6,35.1,46.0,39.1,28.0,94,88,70,31.40,22.74,15,3,15,0.92
2013-3-19,52.0,44.5,36.5,47.9,30.1,15.5,95,60,33,31.40,22.74,43,15,43,0.02
2013-3-20,48.3,38.1,30.8,24.4,19.7,15.0,59,48,36,31.40,22.74,32,10,32,0.00
2013-3-21,33.1,27.3,22.1,22.4,14.9,11.2,84,60,45,31.40,22.74,24,8,24,0.00
2013-3-22,44.6,32.4,24.9,23.7,18.5,14.9,67,57,42,31.40,22.74,24,9,24,0.00
2013-3-23,44.6,44.6,44.6,22.9,22.9,22.9,42,42,42,0.00,40.00,17,17,17,0.00
2013-3-24,44.6,44.6,44.6,22.9,22.9,22.9,42,42,42,0.00,40.00,17,17,17,0.00
2013-3-25,44.6,44.6,44.6,22.9,22.9,22.9,42,42,42,0.00,40.00,17,17,17,0.00
2013-3-26,44.6,44.6,44.6,22.9,22.9,22.9,42,42,42,0.00,40.00,17,17,17,0.00
2013-3-27,44.6,44.6,44.6,22.9,22.9,22.9,42,42,42,0.00,40.00,17,17,17,0.00
2013-3-28,44.6,44.6,44.6,22.9,22.9,22.9,42,42,42,0.00,40.00,17,17,17,0.00
2013-3-29,48.3,44.6,42.5,33.2,28.8,22.9,69,54,42,31.40,22.74,17,6,17,0.00
2013-3-30,63.2,46.9,32.2,34.7,31.5,28.1,89,59,31,31.40,22.74,16,1,16,0.00
2013-3-31,52.7,45.5,38.3,49.7,42.0,31.8,95,88,72,31.40,22.74,12,2,12,0.17
2013-4-1,52.7,45.0,32.4,44.6,34.0,18.9,95,68,35,31.40,22.74,28,6,28,0.00
2013-4-2,47.6,37.0,26.9,23.5,19.6,16.8,76,51,33,31.40,22.74,27,5,27,0.00
2013-4-3,50.1,36.4,21.9,25.2,19.8,14.1,89,55,30,31.40,22.74,28,3,28,0.00
2013-4-4,58.2,41.3,25.2,27.6,21.9,13.7,73,48,28,31.40,22.74,14,2,14,0.00
2013-4-5,64.8,49.3,31.0,39.2,31.3,24.5,85,53,32,31.40,22.74,21,2,21,0.00
2013-4-6,66.8,47.9,28.2,33.4,24.8,18.6,84,45,20,31.40,22.74,9,1,9,0.00
2013-4-7,74.8,64.0,50.8,49.8,42.8,32.0,68,46,38,31.40,22.74,34,9,34,0.00
2013-4-8,79.2,65.1,47.1,53.6,49.9,43.8,89,61,39,31.40,22.74,29,4,29,0.00
2013-4-9,85.4,69.1,53.2,60.6,55.0,48.6,85,63,43,31.40,22.74,24,3,24,0.00
2013-4-10,87.7,73.7,57.4,63.5,57.9,51.8,83,60,41,31.40,22.74,26,6,26,0.00
2013-4-11,86.3,70.6,54.2,62.3,56.8,51.3,91,64,41,31.40,21.27,20,2,20,0.00
2013-4-12,75.3,63.6,60.5,61.4,57.3,55.6,94,81,53,31.40,21.46,29,10,29,0.50
2013-4-13,62.4,62.4,62.4,55.8,55.8,55.8,79,79,79,31.40,31.40,14,14,14,0.00
2013-4-14,62.4,62.4,62.4,55.8,55.8,55.8,79,79,79,31.40,31.40,14,14,14,0.00
2013-4-15,62.4,62.4,62.4,55.8,55.8,55.8,79,79,79,31.40,31.40,14,14,14,0.00
2013-4-16,62.4,62.4,62.4,55.8,55.8,55.8,79,79,79,31.40,31.40,14,14,14,0.00
2013-4-17,62.4,62.4,62.4,55.8,55.8,55.8,79,79,79,31.40,31.40,14,14,14,0.00
2013-4-18,83.5,66.8,62.4,61.4,56.6,55.8,79,71,47,31.40,21.47,31,13,31,0.00
2013-4-19,75.5,62.1,46.3,63.3,52.1,33.9,91,70,56,31.40,21.47,32,10,32,0.18
2013-4-20,58.1,46.2,38.6,35.7,30.7,26.9,77,56,35,31.40,21.47,28,9,28,0.01
2013-4-21,59.1,45.1,29.5,32.0,28.8,26.6,91,57,32,31.40,21.47,13,2,13,0.00
2013-4-22,66.7,54.3,40.0,39.2,33.6,29.6,74,47,30,31.40,21.47,15,3,15,0.00
2013-4-23,77.5,58.4,36.2,46.4,39.4,32.7,90,53,29,31.40,22.75,10,1,10,0.00
2013-4-24,77.4,56.9,43.2,61.7,48.3,37.3,92,75,49,31.40,22.75,36,8,36,0.20
2013-4-25,54.7,48.0,34.4,40.3,36.6,32.3,94,67,49,31.40,21.52,16,4,16,0.00
2013-4-26,54.4,54.4,54.4,37.1,37.1,37.1,52,52,52,31.40,31.40,6,6,6,0.00
2013-4-27,54.4,54.4,54.4,37.1,37.1,37.1,52,52,52,31.40,31.40,6,6,6,0.00
2013-4-28,66.5,57.8,54.4,56.6,44.3,37.1,88,62,52,31.40,22.02,21,5,21,0.23
2013-4-29,69.2,59.4,48.7,57.9,53.2,46.8,94,81,63,31.40,21.47,12,2,12,0.01
2013-4-30,80.3,64.2,47.2,59.9,53.1,45.8,95,70,42,31.40,21.47,15,2,15,0.00
2013-5-1,79.3,66.0,49.0,58.5,52.0,42.5,94,64,41,31.40,21.47,16,2,16,0.00
2013-5-2,84.3,65.7,45.2,55.7,47.7,42.1,91,56,36,31.40,21.46,17,2,17,0.00
2013-5-3,81.0,64.6,43.8,48.9,44.5,38.1,89,52,26,31.40,21.46,20,4,20,0.00
2013-5-4,63.4,59.2,45.6,45.7,40.4,33.0,66,50,45,31.40,21.74,12,1,12,0.00
2013-5-5,76.8,63.6,43.3,42.7,38.5,29.8,87,44,20,31.40,22.02,20,5,20,0.00
2013-5-6,69.3,59.3,53.1,56.5,50.1,41.6,92,72,54,31.40,21.54,20,4,20,0.06
2013-5-7,65.3,59.6,55.8,60.2,56.1,53.6,95,88,77,31.40,21.54,12,1,12,0.68
2013-5-8,73.3,62.0,54.3,56.9,54.4,50.9,96,78,52,31.40,21.54,12,1,12,0.10
2013-5-9,80.5,63.1,55.3,63.8,57.3,53.0,94,83,46,31.40,21.54,34,2,34,0.07
2013-5-10,82.5,64.4,54.8,66.1,59.1,53.1,95,85,55,31.40,21.54,47,3,47,0.30
2013-5-11,66.0,61.4,54.7,61.4,57.7,50.9,96,88,75,31.40,21.54,20,5,20,0.66
2013-5-12,59.1,52.1,43.2,51.3,38.5,32.3,90,62,41,31.40,21.54,27,7,27,0.00
2013-5-13,58.4,46.2,35.5,38.9,34.9,31.8,93,67,40,31.40,23.08,29,4,29,0.00
2013-5-14,68.0,50.7,31.8,47.5,39.0,30.0,94,68,38,31.40,23.08,16,2,16,0.00
2013-5-15,90.2,72.2,49.5,66.0,57.5,45.6,88,63,43,31.40,21.59,28,8,28,0.00
2013-5-16,76.9,67.9,61.5,65.2,60.5,53.7,93,79,50,31.40,21.58,15,3,15,0.16
2013-5-17,87.8,71.4,59.5,66.9,61.7,57.8,95,75,44,31.40,21.58,9,1,9,0.01
2013-5-18,85.6,69.5,57.7,70.0,62.6,56.0,95,80,54,31.40,21.58,12,1,12,0.07
2013-5-19,84.8,69.1,59.3,70.8,64.3,57.9,95,86,61,31.40,21.58,10,1,10,0.07
2013-5-20,88.2,73.7,59.5,72.4,66.2,57.8,95,79,57,31.40,21.58,15,3,15,0.00
2013-5-21,87.5,75.4,62.1,73.7,67.6,60.7,95,78,57,31.40,22.00,23,4,23,0.00
2013-5-22,80.5,75.3,62.7,67.0,65.5,60.9,94,73,61,31.40,22.00,13,4,13,0.00
2013-5-23,80.0,80.0,80.0,66.7,66.7,66.7,64,64,64,31.40,31.40,6,6,9,0.00
2013-5-24,80.0,72.4,39.2,66.7,60.4,36.8,94,67,59,31.40,31.40,10,5,10,0.00
2013-5-25,65.0,49.7,34.4,44.6,39.2,32.9,94,70,44,31.40,19.53,15,2,15,0.00
2013-5-26,71.4,54.8,36.7,45.8,39.8,34.6,94,63,29,31.40,19.53,15,1,15,0.00
2013-5-27,68.2,53.8,41.5,55.4,47.4,39.3,94,80,53,31.40,19.53,10,0,10,0.00
2013-5-28,84.0,70.3,55.6,66.8,60.8,53.1,92,74,52,31.40,19.53,20,4,20,0.00
2013-5-29,88.7,73.6,59.0,70.1,63.5,56.9,94,73,48,31.40,19.53,23,4,23,0.00
2013-5-30,94.0,77.0,59.3,73.4,66.2,57.3,94,72,47,31.40,19.53,9,1,9,0.00
2013-5-31,93.3,77.9,61.5,70.5,66.0,59.8,94,70,45,31.40,19.53,12,2,12,0.00
2013-6-1,91.0,78.4,65.9,72.2,68.0,63.8,94,72,51,31.40,19.53,20,4,20,0.00
2013-6-2,79.4,72.2,63.9,70.1,66.0,61.8,93,81,67,31.40,19.53,18,5,18,0.19
2013-6-3,75.3,67.7,57.5,66.5,62.5,54.7,95,84,65,31.40,19.53,10,1,10,0.08
2013-6-4,77.0,62.8,47.9,54.9,51.0,45.4,94,69,41,31.40,19.53,10,1,10,0.00
2013-6-5,88.0,69.0,50.9,69.7,60.0,48.9,94,75,53,31.40,19.53,10,1,10,0.05
2013-6-6,78.5,69.4,64.5,70.2,66.1,62.7,94,90,73,31.40,19.53,12,1,12,0.46
2013-6-7,70.1,66.5,63.2,66.6,63.5,59.2,95,90,79,31.40,21.44,9,1,9,0.11
2013-6-8,79.2,67.0,59.4,64.0,60.2,57.1,94,80,57,31.40,21.44,12,1,12,0.00
2013-6-9,89.0,73.1,58.3,70.5,64.2,56.6,94,76,47,31.40,21.44,20,1,20,0.03
2013-6-10,79.9,70.0,64.8,71.7,66.3,62.1,94,88,73,31.40,21.44,26,4,26,0.14
2013-6-11,80.7,69.3,61.9,69.7,64.6,60.2,94,86,65,31.40,21.51,15,4,15,0.02
2013-6-12,91.0,78.2,65.0,76.1,70.6,62.9,94,79,57,31.40,21.47,18,3,18,0.11
2013-6-13,76.6,67.5,61.4,71.7,64.9,57.5,94,91,84,31.40,21.47,14,3,14,2.15
2013-6-14,77.0,65.8,55.6,64.4,59.0,53.9,94,80,59,31.40,22.67,12,1,12,0.00
2013-6-15,84.0,69.0,55.6,64.6,58.7,53.9,94,73,43,31.40,22.67,14,1,14,0.00
2013-6-16,75.8,69.3,64.0,69.2,64.9,61.0,91,86,78,31.40,22.67,18,4,18,0.00
2013-6-17,86.5,74.8,67.7,73.2,68.6,65.5,94,82,62,31.40,22.67,10,2,10,0.00
2013-6-18,78.3,69.7,66.0,70.1,66.3,64.2,95,89,72,31.40,21.40,9,1,9,0.49
2013-6-19,81.3,70.0,61.2,67.6,62.6,58.7,96,79,53,31.40,21.40,8,0,8,0.00
2013-6-20,87.3,70.8,55.0,66.8,60.8,53.3,94,74,44,31.40,21.40,9,1,9,0.00
2013-6-21,93.2,74.8,57.1,71.1,63.1,55.4,94,71,41,31.40,21.41,10,1,10,0.00
2013-6-22,91.0,71.3,60.4,72.7,64.9,58.7,94,83,49,31.40,21.38,9,1,9,0.00
2013-6-23,94.8,77.9,64.8,75.1,69.1,63.0,94,77,46,31.40,21.38,12,1,12,0.00
2013-6-24,92.6,78.6,64.4,76.4,69.5,62.6,95,76,54,31.40,21.38,16,2,16,0.03
2013-6-25,91.8,79.6,68.5,74.5,71.1,66.5,94,77,55,31.40,21.49,17,4,17,0.00
2013-6-26,86.3,76.9,70.7,74.5,70.9,68.1,92,82,63,31.40,21.80,14,3,14,0.02
2013-6-27,72.3,70.2,67.9,69.6,68.2,66.1,95,93,91,31.40,21.80,13,2,13,1.08
2013-6-28,85.7,70.6,64.7,75.4,67.9,63.4,96,92,68,31.40,21.55,20,2,20,1.02
2013-6-29,85.0,70.3,60.1,69.8,65.3,59.0,96,85,59,31.40,21.55,14,2,14,0.05
2013-6-30,92.9,77.0,62.9,72.5,67.9,61.7,96,76,48,31.40,21.55,12,1,12,0.01
2013-7-1,90.0,75.2,66.8,74.2,69.4,65.5,96,84,55,31.40,21.55,8,1,8,0.59
2013-7-2,89.0,76.5,67.7,75.0,70.2,66.5,96,82,56,31.40,21.55,12,2,12,0.50
2013-7-3,91.2,76.8,66.2,74.9,70.1,65.0,96,81,57,31.40,21.55,12,2,12,0.00
2013-7-4,92.3,76.6,69.1,79.6,71.0,67.9,96,84,55,31.40,21.55,13,1,13,0.59
2013-7-5,90.8,77.5,66.4,75.6,71.0,65.2,96,82,57,31.40,21.98,20,2,20,0.00
2013-7-6,95.0,81.3,68.8,75.7,72.4,67.6,96,76,52,31.40,22.08,13,2,13,0.01
2013-7-7,82.0,73.9,67.9,73.5,69.8,66.7,96,87,71,31.40,22.08,14,2,14,0.62
2013-7-8,87.9,73.5,64.0,73.6,68.7,62.8,97,86,60,31.40,22.05,12,2,12,0.25
2013-7-9,84.5,74.2,70.4,78.0,71.9,69.4,97,93,78,31.40,21.48,20,2,20,0.96
2013-7-10,89.5,75.3,66.8,78.4,71.2,65.5,97,88,67,31.40,21.48,37,4,37,0.98
2013-7-11,78.0,71.2,66.2,70.6,67.3,65.0,97,88,78,31.40,21.48,8,0,8,0.00
2013-7-12,81.1,67.9,62.9,70.2,63.8,59.7,96,88,64,31.40,21.48,21,1,21,0.56
2013-7-13,87.9,73.5,61.4,74.2,67.8,60.5,97,84,62,31.40,21.51,9,0,9,0.00
2013-7-14,93.2,80.6,67.4,75.4,70.9,66.2,97,75,50,31.40,21.85,14,2,14,0.00
2013-7-15,95.7,80.2,65.9,76.6,71.5,64.8,97,77,52,31.40,21.85,9,0,9,0.00
2013-7-16,98.4,80.2,68.6,78.8,73.4,67.4,97,82,52,31.40,21.85,10,0,10,0.08
2013-7-17,94.0,78.6,69.9,80.9,73.9,69.0,97,87,62,31.40,21.85,17,1,17,0.32
2013-7-18,98.7,82.8,69.9,81.1,75.4,69.0,97,81,53,31.40,21.85,9,0,9,0.00
2013-7-19,96.8,78.9,72.3,81.8,74.3,70.0,97,86,60,31.40,21.85,13,2,13,0.01
2013-7-20,93.0,76.9,71.3,77.6,72.0,69.5,95,86,58,31.40,21.68,18,4,18,0.04
2013-7-21,85.8,75.0,68.4,76.0,71.5,67.4,97,89,73,31.40,21.69,10,1,10,0.22
2013-7-22,87.0,75.3,69.9,76.1,71.8,69.0,97,89,69,31.40,21.69,21,2,21,0.38
2013-7-23,88.8,76.8,68.8,74.5,70.8,67.2,97,83,58,31.40,21.46,20,3,20,0.18
2013-7-24,76.0,68.6,58.9,67.3,63.0,57.1,97,83,65,31.40,21.46,12,1,12,0.01
2013-7-25,80.9,66.4,54.8,63.3,58.9,53.7,99,79,50,31.40,21.46,10,0,10,0.00
2013-7-26,86.2,68.8,55.5,65.5,59.5,54.1,97,76,42,31.40,21.46,10,0,10,0.00
2013-7-27,76.7,67.6,59.7,71.0,64.9,58.5,97,91,78,31.40,21.46,14,2,14,0.36
2013-7-28,82.3,70.3,58.7,67.4,62.7,56.3,97,79,55,31.40,21.46,22,4,22,0.51
2013-7-29,80.4,66.8,53.8,63.1,58.3,52.4,97,77,50,31.40,21.47,17,2,17,0.01
2013-7-30,85.0,70.8,59.6,67.5,63.1,58.5,97,79,52,31.40,21.47,9,0,9,0.00
2013-7-31,83.2,68.3,61.8,69.6,64.6,60.6,97,89,63,31.40,21.47,12,1,12,0.00
2013-8-1,86.5,72.4,64.8,72.5,67.7,63.3,96,86,62,31.40,21.47,13,2,13,0.09
2013-8-2,85.5,72.8,60.3,69.5,64.1,59.3,97,77,51,31.40,21.47,18,3,18,0.01
2013-8-3,78.3,69.4,65.6,70.8,66.4,63.8,97,91,73,31.40,21.47,12,1,12,0.46
2013-8-4,81.0,69.5,58.6,65.8,61.7,56.8,97,79,48,31.40,21.47,10,1,10,0.00
2013-8-5,83.9,66.1,54.3,64.4,58.5,53.5,97,80,46,31.40,21.47,9,0,9,0.00
2013-8-6,86.6,71.7,59.8,67.2,62.6,58.9,97,76,43,31.40,21.47,8,1,8,0.01
2013-8-7,93.0,74.4,63.4,77.2,68.8,62.2,97,84,58,31.40,21.47,18,2,18,0.01
2013-8-8,89.2,74.3,67.4,77.5,71.4,66.5,97,91,67,31.40,21.47,15,2,15,0.51
2013-8-9,83.5,74.6,71.9,77.0,72.6,71.0,97,94,79,31.40,22.00,17,4,17,0.76
2013-8-10,88.4,75.1,65.9,71.2,67.7,62.0,97,81,47,31.40,22.00,10,0,10,0.00
2013-8-11,90.5,75.0,62.6,73.0,67.4,61.7,97,80,51,31.40,22.27,8,1,8,0.01
2013-8-12,88.0,74.5,65.3,74.8,68.9,64.4,97,84,56,31.40,22.27,12,1,12,0.00
2013-8-13,85.2,72.2,63.4,73.4,66.9,55.1,97,85,63,31.40,22.27,20,2,20,1.45
2013-8-14,71.9,61.6,51.3,57.4,54.0,50.0,96,78,53,31.40,22.27,10,0,10,0.00
2013-8-15,77.1,61.8,51.0,60.8,54.8,50.2,97,81,50,31.40,22.27,10,0,10,0.01
2013-8-16,83.3,66.1,53.6,64.6,58.4,52.4,97,79,46,31.40,22.27,7,0,7,0.00
2013-8-17,78.7,67.4,55.1,65.9,60.4,53.9,97,80,52,31.40,22.27,10,1,10,0.04
2013-8-18,77.9,67.8,63.1,70.3,65.7,61.8,97,93,76,31.40,22.27,8,0,8,0.49
2013-8-19,84.3,71.9,64.7,71.8,67.8,63.3,97,88,62,31.40,22.27,12,1,12,0.06
2013-8-20,86.2,70.7,62.4,70.9,64.9,61.1,97,84,54,31.40,22.69,7,0,7,0.01
2013-8-21,90.0,72.1,61.3,76.3,67.2,60.1,97,86,62,31.40,22.69,16,1,16,0.60
2013-8-22,79.8,69.6,64.8,73.4,67.5,63.9,97,93,81,31.40,22.69,9,1,9,0.07
2013-8-23,78.8,70.6,61.9,71.5,67.0,60.6,97,89,63,31.40,22.69,12,0,12,0.70
2013-8-24,90.5,70.6,58.5,68.7,63.1,57.4,97,80,45,31.40,22.69,7,0,7,0.01
2013-8-25,88.0,71.2,58.8,68.2,62.9,57.8,97,78,44,31.40,21.56,9,0,9,0.01
2013-8-26,89.2,72.6,59.5,71.6,65.3,58.4,97,80,52,31.40,21.56,13,2,13,0.00
2013-8-27,82.3,74.8,67.9,75.7,71.2,66.1,96,89,79,31.40,21.79,12,2,12,0.00
2013-8-28,78.7,74.5,70.1,76.5,73.2,69.2,97,96,91,31.40,21.74,12,2,12,2.20
2013-8-29,88.8,77.6,70.0,74.8,72.1,68.7,97,84,61,31.40,21.74,9,0,9,0.12
2013-8-30,91.8,77.2,65.7,76.0,70.7,64.8,97,82,59,31.40,21.50,14,1,14,0.00
2013-8-31,84.4,75.0,68.3,73.1,70.5,67.4,97,87,65,31.40,21.50,14,3,14,0.00
2013-9-1,85.6,74.9,67.4,73.9,69.8,66.5,97,85,63,31.40,21.99,10,2,10,0.00
2013-9-2,86.5,73.4,66.6,75.9,70.1,65.7,97,90,67,31.40,21.43,15,2,15,0.27
2013-9-3,82.0,69.9,60.0,67.9,63.7,57.9,97,83,55,31.40,21.75,20,1,20,0.01
2013-9-4,82.8,66.6,55.5,64.6,59.5,54.4,97,80,52,31.40,21.75,9,1,9,0.00
2013-9-5,83.7,68.2,55.6,68.5,61.0,54.5,97,80,54,31.40,21.75,15,1,15,0.01
2013-9-6,78.3,62.9,49.6,59.1,53.7,48.2,96,75,38,31.40,21.75,9,0,9,0.00
2013-9-7,85.2,65.9,51.0,65.5,57.2,49.9,97,77,42,31.40,22.33,12,1,12,0.00
2013-9-8,89.7,73.0,62.7,73.1,66.5,60.6,95,82,56,31.40,22.33,12,0,12,0.00
2013-9-9,90.5,75.5,63.2,75.3,69.1,62.3,97,83,58,31.40,21.53,13,2,13,0.00
2013-9-10,92.0,79.2,68.9,77.6,72.9,67.3,95,82,62,31.40,21.54,14,3,14,0.00
2013-9-11,88.0,76.0,69.2,79.5,72.5,68.3,97,89,73,31.40,21.54,12,1,12,0.07
2013-9-12,87.1,72.5,68.1,75.7,70.1,66.4,97,92,69,31.40,21.54,34,3,34,0.52
2013-9-13,75.5,63.7,52.7,66.6,57.6,49.1,96,82,53,31.40,21.54,23,2,23,0.30
2013-9-14,69.5,55.5,45.9,53.2,49.1,44.8,97,81,53,31.40,21.54,8,0,8,0.00
2013-9-15,77.2,59.8,44.9,63.7,53.9,43.8,99,83,55,31.40,21.54,20,2,20,0.01
2013-9-16,69.8,61.8,56.4,61.1,58.1,54.7,97,88,68,31.40,21.54,8,0,8,0.22
2013-9-17,74.5,59.9,48.8,60.4,53.5,47.7,97,82,52,31.40,21.54,9,0,9,0.01
2013-9-18,76.2,60.8,45.6,64.8,56.0,44.4,97,85,62,31.40,21.84,7,0,7,0.08
2013-9-19,82.2,70.1,63.1,68.0,64.6,62.1,97,84,57,31.40,21.72,8,0,8,0.02
2013-9-20,80.9,70.1,63.5,73.1,67.7,62.6,97,93,77,31.40,21.45,9,1,9,0.26
2013-9-21,69.8,63.6,56.6,68.6,62.6,55.8,97,96,91,31.40,21.77,22,1,22,0.74
2013-9-22,69.5,58.9,49.1,58.9,54.5,47.6,97,86,64,31.40,21.77,9,0,9,0.00
2013-9-23,61.1,51.4,44.7,53.1,47.1,43.4,97,86,66,31.40,21.77,8,0,8,0.00
2013-9-24,74.0,53.4,40.3,57.6,48.2,39.3,97,85,53,31.40,21.77,8,0,8,0.01
2013-9-25,80.3,61.3,48.1,66.3,56.8,47.0,97,87,56,31.40,21.45,5,0,5,0.01
2013-9-26,79.9,64.4,53.2,67.0,58.2,51.5,97,83,51,31.40,21.45,9,0,9,0.00
2013-9-27,80.8,61.0,48.6,62.3,53.8,47.5,97,80,44,31.40,21.45,5,0,5,0.01
2013-9-28,78.7,62.0,49.0,62.4,55.6,47.8,97,81,55,31.40,21.45,6,0,6,0.00
2013-9-29,79.0,62.8,49.6,63.8,56.6,48.5,96,82,56,31.40,21.45,8,0,8,0.00
2013-9-30,70.4,62.0,54.1,64.7,59.2,53.0,97,91,79,31.40,21.45,5,0,5,0.00
2013-10-1,82.0,66.5,56.0,66.6,60.8,55.2,97,84,54,31.40,21.45,15,2,15,0.01
2013-10-2,84.3,67.0,54.6,68.7,61.3,53.5,96,84,57,31.40,21.45,7,1,7,0.00
2013-10-3,85.9,69.6,58.8,70.0,63.9,57.6,97,84,57,31.40,21.45,8,1,8,0.04
2013-10-4,87.2,71.6,62.3,72.0,66.2,61.4,97,85,56,31.40,21.45,12,1,12,0.01
2013-10-5,87.0,73.0,60.6,71.7,66.8,59.5,97,83,59,31.40,21.45,13,2,13,0.00
2013-10-6,89.5,75.6,62.6,69.6,65.2,61.4,97,73,46,31.40,21.80,16,3,16,0.00
2013-10-7,72.5,58.7,45.8,63.0,52.3,44.2,96,80,59,31.40,21.80,26,4,26,0.26
2013-10-8,69.2,53.4,41.2,52.4,46.6,40.1,100,80,50,31.40,21.80,13,0,13,0.01
2013-10-9,72.5,55.0,39.7,52.0,45.4,38.7,96,73,41,31.40,21.80,10,1,10,0.00
2013-10-10,74.0,61.5,53.3,59.6,51.9,44.0,88,72,57,31.40,21.80,10,0,10,0.00
2013-10-11,61.9,58.5,55.4,57.2,55.5,53.1,94,90,83,31.40,21.86,9,1,9,0.00
2013-10-12,58.3,57.9,56.8,56.8,56.4,55.4,95,95,94,31.40,21.87,6,1,6,0.00
2013-10-13,75.3,67.3,62.5,64.4,61.9,58.8,90,83,68,31.40,21.87,4,0,4,0.00
2013-10-14,67.2,62.8,60.7,62.1,60.0,58.3,95,90,83,31.40,21.87,8,0,8,0.00
2013-10-15,77.3,63.8,56.5,65.4,59.8,55.7,97,88,61,31.40,21.87,6,0,6,0.00
2013-10-16,72.5,63.1,56.1,62.3,58.4,53.9,96,85,67,31.40,21.87,12,3,12,0.00
2013-10-17,66.0,59.6,51.7,64.4,58.2,49.4,97,95,91,31.40,21.80,20,2,20,0.28
2013-10-18,66.8,53.4,41.8,51.8,45.6,40.7,97,78,48,31.40,21.75,12,2,12,0.00
2013-10-19,55.0,45.3,37.7,50.2,43.1,36.6,100,92,81,31.40,21.75,21,2,21,0.03
2013-10-20,61.9,48.2,36.8,46.1,40.6,35.5,96,78,47,31.40,21.75,20,3,20,0.01
2013-10-21,70.3,50.6,33.4,47.8,40.5,32.1,95,73,38,31.40,21.75,15,2,15,0.00
2013-10-22,57.2,48.8,38.5,48.1,41.8,36.1,94,78,49,31.40,21.75,16,3,16,0.14
2013-10-23,41.7,39.5,37.1,41.0,38.0,35.8,100,94,92,31.40,21.70,15,1,15,0.42
2013-10-24,43.8,38.6,31.6,39.4,35.1,30.1,95,88,71,31.40,21.70,23,3,23,0.03
2013-10-25,49.4,36.2,27.8,37.7,32.1,26.6,100,86,58,31.40,21.92,12,2,12,0.01
2013-10-26,55.5,41.7,28.4,35.0,30.7,26.8,95,69,41,31.40,21.92,25,4,25,0.00
2013-10-27,61.7,46.9,33.5,41.6,36.4,31.2,92,69,46,31.40,21.92,15,2,15,0.00
2013-10-28,67.2,45.8,30.7,46.3,37.8,29.4,100,77,42,31.40,21.56,13,1,13,0.00
2013-10-29,68.1,49.6,31.9,45.5,40.0,30.5,95,73,41,31.40,21.56,9,0,9,0.00
2013-10-30,61.2,54.1,46.9,57.9,51.4,42.9,96,91,84,31.40,21.52,4,0,4,0.01
2013-10-31,70.5,62.2,56.0,60.5,57.6,55.2,97,86,64,31.40,21.56,32,4,32,0.09
2013-11-1,72.4,62.3,50.1,61.3,52.7,46.4,95,73,50,31.40,21.43,32,8,32,0.17
2013-11-2,57.1,51.1,46.8,48.2,44.9,40.1,92,80,64,31.40,21.47,20,3,20,0.03
2013-11-3,55.6,45.3,33.3,41.9,37.0,30.4,91,75,44,31.40,21.48,10,0,10,0.01
2013-11-4,54.8,41.1,30.0,38.3,33.4,27.8,93,76,50,31.40,21.49,5,0,5,0.00
2013-11-5,62.2,47.3,35.8,41.7,38.1,33.9,94,73,43,31.40,21.49,5,0,5,0.00
2013-11-6,76.2,57.2,35.2,55.9,46.7,33.6,94,71,49,31.40,21.49,20,5,20,0.00
2013-11-7,66.4,49.5,34.1,55.9,42.4,28.5,95,77,57,31.40,21.56,25,5,25,0.35
2013-11-8,52.1,39.9,29.3,35.7,30.8,26.7,90,71,49,31.40,21.56,24,3,24,0.00
2013-11-9,62.2,44.7,28.1,35.6,29.5,25.9,100,61,29,31.40,21.56,18,4,18,0.00
2013-11-10,54.7,47.2,31.7,39.1,33.1,27.9,86,59,42,31.40,21.56,34,7,34,0.00
2013-11-11,51.2,39.6,26.7,39.8,31.6,24.7,93,75,50,31.40,21.56,12,1,12,0.00
2013-11-12,46.9,40.3,33.3,41.7,36.7,31.5,93,87,75,31.40,21.56,12,2,12,0.08
2013-11-14,52.9,37.3,28.7,29.1,27.2,25.1,88,70,36,31.40,21.56,9,1,9,0.07
2013-11-15,62.2,43.1,25.8,44.2,32.6,23.5,92,71,32,31.40,21.56,16,2,16,0.03
2013-11-16,67.8,51.4,38.0,56.3,47.2,37.0,97,86,65,31.40,21.55,12,1,12,0.01
2013-11-17,67.5,57.3,47.0,61.4,53.7,45.3,96,88,72,31.40,21.55,34,3,34,0.27
2013-11-18,60.9,52.1,41.6,50.2,39.4,31.9,90,63,44,31.40,21.54,33,10,33,0.11
2013-11-19,41.5,37.3,30.3,32.1,28.3,26.3,86,70,63,31.40,21.54,17,1,17,0.00
2013-11-20,58.9,39.1,25.8,29.0,24.0,18.4,89,60,24,31.40,21.54,12,1,12,0.00
2013-11-21,58.8,43.2,27.6,46.8,35.3,22.6,89,75,57,31.40,21.50,9,0,9,0.00
2013-11-22,55.9,51.5,42.2,55.1,49.6,39.1,97,93,84,31.40,21.43,14,1,14,0.27
2013-11-23,43.2,35.9,23.2,39.4,27.8,13.5,91,73,54,31.40,21.43,23,5,23,0.00
2013-11-24,30.6,22.4,15.9,15.6,11.6,8.8,87,64,47,31.40,21.43,18,3,18,0.00
2013-11-25,45.1,28.5,14.3,30.2,16.2,10.9,91,64,29,31.40,21.43,21,2,21,0.00
2013-11-26,38.2,36.2,33.7,37.2,34.8,30.0,96,94,77,31.40,21.43,10,0,10,0.85
2013-11-27,35.9,30.2,25.4,34.8,27.3,18.3,96,89,74,31.40,21.57,16,2,16,0.07
2013-11-28,35.2,28.2,24.3,25.8,21.9,17.4,88,77,63,31.40,21.57,15,3,15,0.05
2013-11-29,44.4,33.3,23.9,31.1,26.0,21.9,92,76,53,31.40,21.57,8,1,8,0.02
2013-11-30,50.1,31.4,21.2,35.3,26.4,19.2,94,83,54,31.40,21.57,9,0,9,0.00
2013-12-1,49.2,38.3,26.7,36.5,31.3,24.9,94,77,55,31.40,21.64,13,2,13,0.00
2013-12-2,55.2,45.2,38.9,41.9,38.6,35.7,90,78,59,31.40,21.52,8,0,8,0.00
2013-12-3,62.7,47.8,37.7,47.4,41.2,35.8,94,79,56,31.40,21.52,10,1,10,0.00
2013-12-4,69.0,50.7,37.0,53.2,44.7,35.4,95,81,57,31.40,21.51,10,1,10,0.00
2013-12-5,70.3,56.6,42.6,61.4,53.3,40.7,97,89,69,31.40,21.51,17,2,17,0.83
2013-12-6,47.6,37.8,32.1,46.1,36.3,30.3,95,94,91,31.40,21.51,10,1,10,0.70
2013-12-7,32.9,30.2,25.6,30.8,26.6,21.2,95,87,77,31.40,21.51,9,0,9,0.01
2013-12-8,34.1,29.0,24.3,32.6,26.4,20.2,95,90,84,31.40,21.51,7,0,7,0.01
2013-12-9,40.2,36.6,33.5,39.4,34.6,29.8,97,92,83,31.40,21.58,14,4,14,0.28
2013-12-10,33.5,30.2,25.7,30.0,24.7,18.0,91,80,69,31.40,21.58,24,4,24,0.01
2013-12-11,25.8,24.8,23.8,18.5,17.9,17.4,78,75,73,31.40,23.03,4,2,4,0.00
2013-12-13,32.0,31.5,31.0,26.3,24.7,23.0,80,76,72,31.40,21.89,0,0,0,0.00
2013-12-14,43.7,36.6,30.8,42.6,34.0,24.0,97,90,74,31.40,21.59,10,0,10,0.35
2013-12-15,43.7,33.3,28.6,42.6,29.8,24.5,96,87,78,31.40,22.35,24,8,24,0.03
2013-12-16,32.5,30.2,27.7,30.2,27.3,25.1,92,89,82,31.40,21.61,15,2,15,0.01
2013-12-20,59.1,54.1,50.7,52.6,50.2,49.0,95,87,78,29.91,21.56,9,2,9,0.01
2013-12-21,69.5,61.9,58.7,61.5,56.5,51.9,97,83,70,29.91,21.56,18,3,18,0.25
2013-12-22,73.6,62.2,57.5,62.8,57.1,52.4,96,84,66,29.91,21.56,47,7,47,0.27
2013-12-23,57.5,42.1,32.4,53.1,38.7,25.0,96,88,73,29.91,22.37,18,3,18,0.29
2013-12-24,32.7,26.5,16.4,26.2,18.7,10.5,88,73,51,29.91,22.37,26,5,26,0.08
2013-12-25,38.8,26.7,17.1,26.6,17.4,11.7,92,69,42,29.91,22.37,9,1,9,0.00
2013-12-26,44.2,34.5,25.4,30.9,25.6,20.0,93,71,46,29.91,21.70,21,4,21,0.01
2013-12-27,49.1,32.5,21.0,29.0,23.8,18.8,98,73,41,29.91,21.70,16,2,16,0.00
2013-12-28,54.6,38.2,25.2,33.5,28.2,22.2,92,70,43,29.91,21.70,15,2,15,0.00
2013-12-29,44.4,41.1,36.9,43.3,39.2,31.6,97,93,80,29.91,21.50,20,3,20,0.62
2013-12-30,41.1,32.8,28.2,39.6,29.7,24.9,95,88,76,29.91,21.50,16,2,16,0.14
2013-12-31,30.6,28.7,22.9,27.3,22.4,19.6,89,77,67,29.91,21.50,27,6,27,0.00
2014-1-1,52.6,31.7,19.9,30.6,24.9,18.0,94,78,42,29.91,21.59,10,0,10,0.01
2014-1-2,35.7,29.4,16.6,32.5,27.0,13.7,95,91,80,29.91,21.60,10,0,10,0.01